sensor_id;sensor_type;location;lat;lon;timestamp;P1;durP1;ratioP1;P2;durP2;ratioP2
73816;SDS011;62146;53.232;-1.304;2022-08-21T00:00:42;7.78;;;1.90;;
73816;SDS011;62146;53.232;-1.304;2022-08-21T00:03:10;7.47;;;1.85;;
73816;SDS011;62146;53.232;-1.304;2022-08-21T00:05:40;9.33;;;1.57;;
73816;SDS011;62146;53.232;-1.304;2022-08-21T00:08:10;10.82;;;2.15;;
73816;SDS011;62146;53.232;-1.304;2022-08-21T00:10:37;10.00;;;2.33;;
73816;SDS011;62146;53.232;-1.304;2022-08-21T00:13:06;9.88;;;1.63;;
73816;SDS011;62146;53.232;-1.304;2022-08-21T00:15:33;6.40;;;1.50;;
73816;SDS011;62146;53.232;-1.304;2022-08-21T00:18:02;9.47;;;1.90;;
73816;SDS011;62146;53.232;-1.304;2022-08-21T00:20:30;9.38;;;2.08;;
73816;SDS011;62146;53.232;-1.304;2022-08-21T00:22:57;7.57;;;1.90;;
73816;SDS011;62146;53.232;-1.304;2022-08-21T00:25:24;7.97;;;1.80;;
73816;SDS011;62146;53.232;-1.304;2022-08-21T00:27:51;8.55;;;1.92;;
73816;SDS011;62146;53.232;-1.304;2022-08-21T00:30:19;11.30;;;2.00;;
73816;SDS011;62146;53.232;-1.304;2022-08-21T00:32:49;8.05;;;1.70;;
73816;SDS011;62146;53.232;-1.304;2022-08-21T00:35:18;8.15;;;2.00;;
73816;SDS011;62146;53.232;-1.304;2022-08-21T00:37:48;6.90;;;1.45;;
73816;SDS011;62146;53.232;-1.304;2022-08-21T00:40:16;7.35;;;2.00;;
73816;SDS011;62146;53.232;-1.304;2022-08-21T00:42:49;8.13;;;1.90;;
73816;SDS011;62146;53.232;-1.304;2022-08-21T00:45:24;11.18;;;2.38;;
73816;SDS011;62146;53.232;-1.304;2022-08-21T00:47:51;8.57;;;1.83;;
73816;SDS011;62146;53.232;-1.304;2022-08-21T00:50:18;6.43;;;1.90;;
73816;SDS011;62146;53.232;-1.304;2022-08-21T00:52:47;8.43;;;1.83;;
73816;SDS011;62146;53.232;-1.304;2022-08-21T00:55:17;6.87;;;1.70;;
73816;SDS011;62146;53.232;-1.304;2022-08-21T00:57:49;9.30;;;2.20;;
73816;SDS011;62146;53.232;-1.304;2022-08-21T01:00:20;8.20;;;2.10;;
73816;SDS011;62146;53.232;-1.304;2022-08-21T01:02:50;10.40;;;2.17;;
73816;SDS011;62146;53.232;-1.304;2022-08-21T01:05:16;7.57;;;1.80;;
73816;SDS011;62146;53.232;-1.304;2022-08-21T01:07:43;9.10;;;1.87;;
73816;SDS011;62146;53.232;-1.304;2022-08-21T01:10:11;8.88;;;2.00;;
73816;SDS011;62146;53.232;-1.304;2022-08-21T01:12:50;7.78;;;1.83;;
73816;SDS011;62146;53.232;-1.304;2022-08-21T01:15:19;7.18;;;1.90;;
73816;SDS011;62146;53.232;-1.304;2022-08-21T01:17:49;7.78;;;1.98;;
73816;SDS011;62146;53.232;-1.304;2022-08-21T01:20:16;8.20;;;2.10;;
73816;SDS011;62146;53.232;-1.304;2022-08-21T01:22:43;9.35;;;1.80;;
73816;SDS011;62146;53.232;-1.304;2022-08-21T01:25:10;11.25;;;2.30;;
73816;SDS011;62146;53.232;-1.304;2022-08-21T01:27:38;9.38;;;1.73;;
73816;SDS011;62146;53.232;-1.304;2022-08-21T01:30:12;6.43;;;1.63;;
73816;SDS011;62146;53.232;-1.304;2022-08-21T01:32:44;7.63;;;1.93;;
73816;SDS011;62146;53.232;-1.304;2022-08-21T01:35:12;7.30;;;1.77;;
73816;SDS011;62146;53.232;-1.304;2022-08-21T01:37:40;7.07;;;1.63;;
73816;SDS011;62146;53.232;-1.304;2022-08-21T01:40:07;8.35;;;2.33;;
73816;SDS011;62146;53.232;-1.304;2022-08-21T01:42:35;9.40;;;2.20;;
73816;SDS011;62146;53.232;-1.304;2022-08-21T01:45:03;11.17;;;2.37;;
73816;SDS011;62146;53.232;-1.304;2022-08-21T01:47:30;7.90;;;1.80;;
73816;SDS011;62146;53.232;-1.304;2022-08-21T01:49:57;8.23;;;2.10;;
73816;SDS011;62146;53.232;-1.304;2022-08-21T01:52:24;13.23;;;2.60;;
73816;SDS011;62146;53.232;-1.304;2022-08-21T01:54:51;9.27;;;2.13;;
73816;SDS011;62146;53.232;-1.304;2022-08-21T01:57:21;10.67;;;2.00;;
73816;SDS011;62146;53.232;-1.304;2022-08-21T01:59:51;6.72;;;1.60;;
73816;SDS011;62146;53.232;-1.304;2022-08-21T02:02:18;9.20;;;1.90;;
73816;SDS011;62146;53.232;-1.304;2022-08-21T02:04:45;9.52;;;2.30;;
73816;SDS011;62146;53.232;-1.304;2022-08-21T02:07:12;10.88;;;2.63;;
73816;SDS011;62146;53.232;-1.304;2022-08-21T02:09:38;13.67;;;2.40;;
73816;SDS011;62146;53.232;-1.304;2022-08-21T02:12:05;9.75;;;2.28;;
73816;SDS011;62146;53.232;-1.304;2022-08-21T02:14:32;10.98;;;2.45;;
73816;SDS011;62146;53.232;-1.304;2022-08-21T02:16:58;9.65;;;2.08;;
73816;SDS011;62146;53.232;-1.304;2022-08-21T02:19:35;9.73;;;2.20;;
73816;SDS011;62146;53.232;-1.304;2022-08-21T02:22:06;8.33;;;2.03;;
73816;SDS011;62146;53.232;-1.304;2022-08-21T02:24:35;8.52;;;1.92;;
73816;SDS011;62146;53.232;-1.304;2022-08-21T02:27:19;8.20;;;2.15;;
73816;SDS011;62146;53.232;-1.304;2022-08-21T02:29:52;11.10;;;2.45;;
73816;SDS011;62146;53.232;-1.304;2022-08-21T02:32:20;14.07;;;2.00;;
73816;SDS011;62146;53.232;-1.304;2022-08-21T02:34:47;10.17;;;2.17;;
73816;SDS011;62146;53.232;-1.304;2022-08-21T02:37:15;9.80;;;1.77;;
73816;SDS011;62146;53.232;-1.304;2022-08-21T02:39:41;8.90;;;2.38;;
73816;SDS011;62146;53.232;-1.304;2022-08-21T02:42:08;11.55;;;2.30;;
73816;SDS011;62146;53.232;-1.304;2022-08-21T02:44:35;11.18;;;2.42;;
73816;SDS011;62146;53.232;-1.304;2022-08-21T02:47:01;9.37;;;2.13;;
73816;SDS011;62146;53.232;-1.304;2022-08-21T02:49:28;11.88;;;2.65;;
73816;SDS011;62146;53.232;-1.304;2022-08-21T02:51:54;8.63;;;2.20;;
73816;SDS011;62146;53.232;-1.304;2022-08-21T02:54:21;9.32;;;2.00;;
73816;SDS011;62146;53.232;-1.304;2022-08-21T02:56:47;11.45;;;2.45;;
73816;SDS011;62146;53.232;-1.304;2022-08-21T02:59:14;10.43;;;2.50;;
73816;SDS011;62146;53.232;-1.304;2022-08-21T03:01:40;10.82;;;2.30;;
73816;SDS011;62146;53.232;-1.304;2022-08-21T03:04:07;9.35;;;2.30;;
73816;SDS011;62146;53.232;-1.304;2022-08-21T03:06:34;12.45;;;2.00;;
73816;SDS011;62146;53.232;-1.304;2022-08-21T03:09:00;9.32;;;2.25;;
73816;SDS011;62146;53.232;-1.304;2022-08-21T03:11:27;7.87;;;2.00;;
73816;SDS011;62146;53.232;-1.304;2022-08-21T03:13:53;10.20;;;2.10;;
73816;SDS011;62146;53.232;-1.304;2022-08-21T03:16:20;8.68;;;2.33;;
73816;SDS011;62146;53.232;-1.304;2022-08-21T03:18:47;9.23;;;2.17;;
73816;SDS011;62146;53.232;-1.304;2022-08-21T03:21:13;10.82;;;2.22;;
73816;SDS011;62146;53.232;-1.304;2022-08-21T03:23:40;12.67;;;2.20;;
73816;SDS011;62146;53.232;-1.304;2022-08-21T03:26:09;9.90;;;2.35;;
73816;SDS011;62146;53.232;-1.304;2022-08-21T03:28:37;9.60;;;2.22;;
73816;SDS011;62146;53.232;-1.304;2022-08-21T03:31:03;9.38;;;2.38;;
73816;SDS011;62146;53.232;-1.304;2022-08-21T03:33:31;8.43;;;2.17;;
73816;SDS011;62146;53.232;-1.304;2022-08-21T03:36:03;8.27;;;2.00;;
73816;SDS011;62146;53.232;-1.304;2022-08-21T03:38:32;8.80;;;2.00;;
73816;SDS011;62146;53.232;-1.304;2022-08-21T03:41:00;7.07;;;1.95;;
73816;SDS011;62146;53.232;-1.304;2022-08-21T03:43:27;9.63;;;2.00;;
73816;SDS011;62146;53.232;-1.304;2022-08-21T03:45:57;7.43;;;2.00;;
73816;SDS011;62146;53.232;-1.304;2022-08-21T03:48:26;10.20;;;2.43;;
73816;SDS011;62146;53.232;-1.304;2022-08-21T03:50:52;9.35;;;2.20;;
73816;SDS011;62146;53.232;-1.304;2022-08-21T03:53:19;11.98;;;2.83;;
73816;SDS011;62146;53.232;-1.304;2022-08-21T03:55:47;10.55;;;2.20;;
73816;SDS011;62146;53.232;-1.304;2022-08-21T03:58:16;7.85;;;1.80;;
73816;SDS011;62146;53.232;-1.304;2022-08-21T04:00:45;7.77;;;2.33;;
73816;SDS011;62146;53.232;-1.304;2022-08-21T04:03:13;8.45;;;2.30;;
73816;SDS011;62146;53.232;-1.304;2022-08-21T04:05:39;9.95;;;2.45;;
73816;SDS011;62146;53.232;-1.304;2022-08-21T04:08:07;10.13;;;2.10;;
73816;SDS011;62146;53.232;-1.304;2022-08-21T04:10:34;9.70;;;2.60;;
73816;SDS011;62146;53.232;-1.304;2022-08-21T04:13:03;9.10;;;2.60;;
73816;SDS011;62146;53.232;-1.304;2022-08-21T04:15:30;9.10;;;2.30;;
73816;SDS011;62146;53.232;-1.304;2022-08-21T04:17:57;10.65;;;2.40;;
73816;SDS011;62146;53.232;-1.304;2022-08-21T04:20:25;9.65;;;2.30;;
73816;SDS011;62146;53.232;-1.304;2022-08-21T04:22:52;10.50;;;2.38;;
73816;SDS011;62146;53.232;-1.304;2022-08-21T04:25:21;7.33;;;2.10;;
73816;SDS011;62146;53.232;-1.304;2022-08-21T04:27:48;8.68;;;2.20;;
73816;SDS011;62146;53.232;-1.304;2022-08-21T04:30:15;8.25;;;1.85;;
73816;SDS011;62146;53.232;-1.304;2022-08-21T04:32:43;8.77;;;2.08;;
73816;SDS011;62146;53.232;-1.304;2022-08-21T04:35:11;8.02;;;2.20;;
73816;SDS011;62146;53.232;-1.304;2022-08-21T04:37:39;7.50;;;2.00;;
73816;SDS011;62146;53.232;-1.304;2022-08-21T04:40:07;13.63;;;2.60;;
73816;SDS011;62146;53.232;-1.304;2022-08-21T04:42:41;10.27;;;2.13;;
73816;SDS011;62146;53.232;-1.304;2022-08-21T04:45:20;9.63;;;2.20;;
73816;SDS011;62146;53.232;-1.304;2022-08-21T04:47:48;10.82;;;2.20;;
73816;SDS011;62146;53.232;-1.304;2022-08-21T04:50:18;9.17;;;2.20;;
73816;SDS011;62146;53.232;-1.304;2022-08-21T04:52:47;10.25;;;2.10;;
73816;SDS011;62146;53.232;-1.304;2022-08-21T04:55:15;8.32;;;2.25;;
73816;SDS011;62146;53.232;-1.304;2022-08-21T04:57:44;11.18;;;2.50;;
73816;SDS011;62146;53.232;-1.304;2022-08-21T05:00:14;10.07;;;2.28;;
73816;SDS011;62146;53.232;-1.304;2022-08-21T05:02:44;8.27;;;2.20;;
73816;SDS011;62146;53.232;-1.304;2022-08-21T05:05:13;9.73;;;2.17;;
73816;SDS011;62146;53.232;-1.304;2022-08-21T05:07:42;6.63;;;2.08;;
73816;SDS011;62146;53.232;-1.304;2022-08-21T05:10:10;12.02;;;2.03;;
73816;SDS011;62146;53.232;-1.304;2022-08-21T05:12:39;10.57;;;2.30;;
73816;SDS011;62146;53.232;-1.304;2022-08-21T05:15:08;12.13;;;2.47;;
73816;SDS011;62146;53.232;-1.304;2022-08-21T05:17:39;11.50;;;2.38;;
73816;SDS011;62146;53.232;-1.304;2022-08-21T05:20:07;9.65;;;2.40;;
73816;SDS011;62146;53.232;-1.304;2022-08-21T05:22:35;11.00;;;2.65;;
73816;SDS011;62146;53.232;-1.304;2022-08-21T05:25:02;9.90;;;2.15;;
73816;SDS011;62146;53.232;-1.304;2022-08-21T05:27:35;9.83;;;2.27;;
73816;SDS011;62146;53.232;-1.304;2022-08-21T05:30:04;8.75;;;2.00;;
73816;SDS011;62146;53.232;-1.304;2022-08-21T05:32:33;8.85;;;2.30;;
73816;SDS011;62146;53.232;-1.304;2022-08-21T05:35:02;9.13;;;2.47;;
73816;SDS011;62146;53.232;-1.304;2022-08-21T05:37:30;6.95;;;1.90;;
73816;SDS011;62146;53.232;-1.304;2022-08-21T05:39:57;13.10;;;2.47;;
73816;SDS011;62146;53.232;-1.304;2022-08-21T05:42:43;10.07;;;2.28;;
73816;SDS011;62146;53.232;-1.304;2022-08-21T05:45:19;8.63;;;2.35;;
73816;SDS011;62146;53.232;-1.304;2022-08-21T05:48:10;10.65;;;2.20;;
73816;SDS011;62146;53.232;-1.304;2022-08-21T05:50:39;9.18;;;2.25;;
73816;SDS011;62146;53.232;-1.304;2022-08-21T05:53:07;8.20;;;2.30;;
73816;SDS011;62146;53.232;-1.304;2022-08-21T05:55:35;6.50;;;1.80;;
73816;SDS011;62146;53.232;-1.304;2022-08-21T05:58:09;11.57;;;2.22;;
73816;SDS011;62146;53.232;-1.304;2022-08-21T06:00:37;12.80;;;2.35;;
73816;SDS011;62146;53.232;-1.304;2022-08-21T06:03:03;8.38;;;2.13;;
73816;SDS011;62146;53.232;-1.304;2022-08-21T06:05:30;8.43;;;2.40;;
73816;SDS011;62146;53.232;-1.304;2022-08-21T06:08:03;9.35;;;2.25;;
73816;SDS011;62146;53.232;-1.304;2022-08-21T06:10:30;10.05;;;2.20;;
73816;SDS011;62146;53.232;-1.304;2022-08-21T06:12:57;9.05;;;1.95;;
73816;SDS011;62146;53.232;-1.304;2022-08-21T06:15:24;11.65;;;2.30;;
73816;SDS011;62146;53.232;-1.304;2022-08-21T06:17:51;10.73;;;2.23;;
73816;SDS011;62146;53.232;-1.304;2022-08-21T06:20:19;8.93;;;1.92;;
73816;SDS011;62146;53.232;-1.304;2022-08-21T06:22:46;8.20;;;2.20;;
73816;SDS011;62146;53.232;-1.304;2022-08-21T06:25:12;11.23;;;2.13;;
73816;SDS011;62146;53.232;-1.304;2022-08-21T06:27:39;9.98;;;2.33;;
73816;SDS011;62146;53.232;-1.304;2022-08-21T06:30:05;9.93;;;2.00;;
73816;SDS011;62146;53.232;-1.304;2022-08-21T06:32:33;7.82;;;2.10;;
73816;SDS011;62146;53.232;-1.304;2022-08-21T06:35:00;11.32;;;2.25;;
73816;SDS011;62146;53.232;-1.304;2022-08-21T06:37:27;8.15;;;2.05;;
73816;SDS011;62146;53.232;-1.304;2022-08-21T06:39:53;10.82;;;2.42;;
73816;SDS011;62146;53.232;-1.304;2022-08-21T06:42:20;9.47;;;1.70;;
73816;SDS011;62146;53.232;-1.304;2022-08-21T06:44:53;9.52;;;2.10;;
73816;SDS011;62146;53.232;-1.304;2022-08-21T06:47:19;8.60;;;2.10;;
73816;SDS011;62146;53.232;-1.304;2022-08-21T06:49:46;7.45;;;1.92;;
73816;SDS011;62146;53.232;-1.304;2022-08-21T06:52:12;6.93;;;2.20;;
73816;SDS011;62146;53.232;-1.304;2022-08-21T06:54:39;8.37;;;2.10;;
73816;SDS011;62146;53.232;-1.304;2022-08-21T06:57:07;9.25;;;1.90;;
73816;SDS011;62146;53.232;-1.304;2022-08-21T06:59:34;7.70;;;1.98;;
73816;SDS011;62146;53.232;-1.304;2022-08-21T07:02:00;7.90;;;2.03;;
73816;SDS011;62146;53.232;-1.304;2022-08-21T07:04:27;8.85;;;2.15;;
73816;SDS011;62146;53.232;-1.304;2022-08-21T07:06:54;11.10;;;2.40;;
73816;SDS011;62146;53.232;-1.304;2022-08-21T07:09:21;12.20;;;2.35;;
73816;SDS011;62146;53.232;-1.304;2022-08-21T07:11:50;8.43;;;2.30;;
73816;SDS011;62146;53.232;-1.304;2022-08-21T07:14:21;7.75;;;1.98;;
73816;SDS011;62146;53.232;-1.304;2022-08-21T07:16:48;7.03;;;2.00;;
73816;SDS011;62146;53.232;-1.304;2022-08-21T07:19:15;8.40;;;2.40;;
73816;SDS011;62146;53.232;-1.304;2022-08-21T07:21:41;7.65;;;2.13;;
73816;SDS011;62146;53.232;-1.304;2022-08-21T07:24:08;7.80;;;2.08;;
73816;SDS011;62146;53.232;-1.304;2022-08-21T07:26:35;9.73;;;2.17;;
73816;SDS011;62146;53.232;-1.304;2022-08-21T07:29:02;10.45;;;2.20;;
73816;SDS011;62146;53.232;-1.304;2022-08-21T07:31:29;10.18;;;2.38;;
73816;SDS011;62146;53.232;-1.304;2022-08-21T07:33:57;9.20;;;2.40;;
73816;SDS011;62146;53.232;-1.304;2022-08-21T07:36:24;8.32;;;2.10;;
73816;SDS011;62146;53.232;-1.304;2022-08-21T07:38:51;10.25;;;2.45;;
73816;SDS011;62146;53.232;-1.304;2022-08-21T07:41:20;7.47;;;2.22;;
73816;SDS011;62146;53.232;-1.304;2022-08-21T07:43:50;11.00;;;2.20;;
73816;SDS011;62146;53.232;-1.304;2022-08-21T07:46:18;8.20;;;2.07;;
73816;SDS011;62146;53.232;-1.304;2022-08-21T07:48:45;7.28;;;2.03;;
73816;SDS011;62146;53.232;-1.304;2022-08-21T07:51:13;10.02;;;2.20;;
73816;SDS011;62146;53.232;-1.304;2022-08-21T07:53:46;12.00;;;2.70;;
73816;SDS011;62146;53.232;-1.304;2022-08-21T07:56:14;13.13;;;2.08;;
73816;SDS011;62146;53.232;-1.304;2022-08-21T07:58:41;10.13;;;2.43;;
73816;SDS011;62146;53.232;-1.304;2022-08-21T08:01:08;11.13;;;2.30;;
73816;SDS011;62146;53.232;-1.304;2022-08-21T08:03:35;12.05;;;2.30;;
73816;SDS011;62146;53.232;-1.304;2022-08-21T08:06:02;7.72;;;2.00;;
73816;SDS011;62146;53.232;-1.304;2022-08-21T08:08:31;10.20;;;2.80;;
73816;SDS011;62146;53.232;-1.304;2022-08-21T08:10:58;8.93;;;2.50;;
73816;SDS011;62146;53.232;-1.304;2022-08-21T08:13:26;8.93;;;2.70;;
73816;SDS011;62146;53.232;-1.304;2022-08-21T08:15:52;11.55;;;2.40;;
73816;SDS011;62146;53.232;-1.304;2022-08-21T08:18:19;13.68;;;2.60;;
73816;SDS011;62146;53.232;-1.304;2022-08-21T08:20:45;9.23;;;2.78;;
73816;SDS011;62146;53.232;-1.304;2022-08-21T08:23:13;9.77;;;2.40;;
73816;SDS011;62146;53.232;-1.304;2022-08-21T08:25:40;11.38;;;2.70;;
73816;SDS011;62146;53.232;-1.304;2022-08-21T08:28:07;11.90;;;2.40;;
73816;SDS011;62146;53.232;-1.304;2022-08-21T08:30:43;10.45;;;2.15;;
73816;SDS011;62146;53.232;-1.304;2022-08-21T08:33:10;8.80;;;2.22;;
73816;SDS011;62146;53.232;-1.304;2022-08-21T08:35:37;9.67;;;2.10;;
73816;SDS011;62146;53.232;-1.304;2022-08-21T08:38:04;9.20;;;2.60;;
73816;SDS011;62146;53.232;-1.304;2022-08-21T08:40:46;9.75;;;2.10;;
73816;SDS011;62146;53.232;-1.304;2022-08-21T08:43:19;13.68;;;2.67;;
73816;SDS011;62146;53.232;-1.304;2022-08-21T08:45:47;10.93;;;2.45;;
73816;SDS011;62146;53.232;-1.304;2022-08-21T08:48:26;11.93;;;2.47;;
73816;SDS011;62146;53.232;-1.304;2022-08-21T08:50:57;9.77;;;2.60;;
73816;SDS011;62146;53.232;-1.304;2022-08-21T08:53:32;8.48;;;2.30;;
73816;SDS011;62146;53.232;-1.304;2022-08-21T08:56:01;9.68;;;2.80;;
73816;SDS011;62146;53.232;-1.304;2022-08-21T08:58:31;10.30;;;2.55;;
73816;SDS011;62146;53.232;-1.304;2022-08-21T09:01:03;10.60;;;2.47;;
73816;SDS011;62146;53.232;-1.304;2022-08-21T09:03:36;9.52;;;2.83;;
73816;SDS011;62146;53.232;-1.304;2022-08-21T09:06:09;8.63;;;2.63;;
73816;SDS011;62146;53.232;-1.304;2022-08-21T09:08:50;10.45;;;2.90;;
73816;SDS011;62146;53.232;-1.304;2022-08-21T09:11:51;12.02;;;2.97;;
73816;SDS011;62146;53.232;-1.304;2022-08-21T09:14:29;9.23;;;2.83;;
73816;SDS011;62146;53.232;-1.304;2022-08-21T09:17:13;10.48;;;3.20;;
73816;SDS011;62146;53.232;-1.304;2022-08-21T09:19:53;9.55;;;3.13;;
73816;SDS011;62146;53.232;-1.304;2022-08-21T09:22:50;10.30;;;3.20;;
73816;SDS011;62146;53.232;-1.304;2022-08-21T09:25:34;8.10;;;3.13;;
73816;SDS011;62146;53.232;-1.304;2022-08-21T09:28:12;10.43;;;3.07;;
73816;SDS011;62146;53.232;-1.304;2022-08-21T09:30:40;11.25;;;3.03;;
73816;SDS011;62146;53.232;-1.304;2022-08-21T09:33:09;11.25;;;3.42;;
73816;SDS011;62146;53.232;-1.304;2022-08-21T09:35:47;8.43;;;2.72;;
73816;SDS011;62146;53.232;-1.304;2022-08-21T09:38:24;9.00;;;2.80;;
73816;SDS011;62146;53.232;-1.304;2022-08-21T09:41:02;9.20;;;3.07;;
73816;SDS011;62146;53.232;-1.304;2022-08-21T09:43:37;10.05;;;3.30;;
73816;SDS011;62146;53.232;-1.304;2022-08-21T09:46:06;9.07;;;3.10;;
73816;SDS011;62146;53.232;-1.304;2022-08-21T09:48:43;11.90;;;3.47;;
73816;SDS011;62146;53.232;-1.304;2022-08-21T09:51:34;11.13;;;3.10;;
73816;SDS011;62146;53.232;-1.304;2022-08-21T09:56:38;9.93;;;2.92;;
73816;SDS011;62146;53.232;-1.304;2022-08-21T09:59:56;12.00;;;2.63;;
73816;SDS011;62146;53.232;-1.304;2022-08-21T10:02:36;10.38;;;2.72;;
73816;SDS011;62146;53.232;-1.304;2022-08-21T10:05:07;8.32;;;2.70;;
73816;SDS011;62146;53.232;-1.304;2022-08-21T10:07:48;11.17;;;2.70;;
73816;SDS011;62146;53.232;-1.304;2022-08-21T10:10:23;15.40;;;2.92;;
73816;SDS011;62146;53.232;-1.304;2022-08-21T10:18:18;12.18;;;2.63;;
73816;SDS011;62146;53.232;-1.304;2022-08-21T10:21:08;10.73;;;2.87;;
73816;SDS011;62146;53.232;-1.304;2022-08-21T10:27:02;10.88;;;2.55;;
73816;SDS011;62146;53.232;-1.304;2022-08-21T10:46:05;10.60;;;3.10;;
73816;SDS011;62146;53.232;-1.304;2022-08-21T10:48:56;15.33;;;3.20;;
73816;SDS011;62146;53.232;-1.304;2022-08-21T10:51:33;10.10;;;2.60;;
73816;SDS011;62146;53.232;-1.304;2022-08-21T10:54:13;8.98;;;2.60;;
73816;SDS011;62146;53.232;-1.304;2022-08-21T10:56:50;9.57;;;2.58;;
73816;SDS011;62146;53.232;-1.304;2022-08-21T11:02:40;7.67;;;2.23;;
73816;SDS011;62146;53.232;-1.304;2022-08-21T11:13:27;9.35;;;2.38;;
73816;SDS011;62146;53.232;-1.304;2022-08-21T11:18:53;7.97;;;2.13;;
73816;SDS011;62146;53.232;-1.304;2022-08-21T11:26:43;9.55;;;2.10;;
73816;SDS011;62146;53.232;-1.304;2022-08-21T11:29:21;8.85;;;1.95;;
73816;SDS011;62146;53.232;-1.304;2022-08-21T11:37:44;9.60;;;1.98;;
73816;SDS011;62146;53.232;-1.304;2022-08-21T11:43:06;7.75;;;2.05;;
73816;SDS011;62146;53.232;-1.304;2022-08-21T11:45:52;6.63;;;1.80;;
73816;SDS011;62146;53.232;-1.304;2022-08-21T11:51:20;6.30;;;1.73;;
73816;SDS011;62146;53.232;-1.304;2022-08-21T11:56:35;11.02;;;2.10;;
73816;SDS011;62146;53.232;-1.304;2022-08-21T11:59:07;6.43;;;1.80;;
73816;SDS011;62146;53.232;-1.304;2022-08-21T12:01:39;7.07;;;2.08;;
73816;SDS011;62146;53.232;-1.304;2022-08-21T12:06:51;7.80;;;2.10;;
73816;SDS011;62146;53.232;-1.304;2022-08-21T12:11:59;9.83;;;2.10;;
73816;SDS011;62146;53.232;-1.304;2022-08-21T12:14:39;8.63;;;2.33;;
73816;SDS011;62146;53.232;-1.304;2022-08-21T12:17:08;6.57;;;2.00;;
73816;SDS011;62146;53.232;-1.304;2022-08-21T12:19:56;6.75;;;1.92;;
73816;SDS011;62146;53.232;-1.304;2022-08-21T12:22:40;9.30;;;2.28;;
73816;SDS011;62146;53.232;-1.304;2022-08-21T12:25:08;8.03;;;2.20;;
73816;SDS011;62146;53.232;-1.304;2022-08-21T12:32:55;7.20;;;2.00;;
73816;SDS011;62146;53.232;-1.304;2022-08-21T12:35:26;5.25;;;1.80;;
73816;SDS011;62146;53.232;-1.304;2022-08-21T12:37:59;5.33;;;1.83;;
73816;SDS011;62146;53.232;-1.304;2022-08-21T12:40:43;6.82;;;2.30;;
73816;SDS011;62146;53.232;-1.304;2022-08-21T12:43:14;9.45;;;1.80;;
73816;SDS011;62146;53.232;-1.304;2022-08-21T12:45:47;6.90;;;2.20;;
73816;SDS011;62146;53.232;-1.304;2022-08-21T12:48:21;7.10;;;2.00;;
73816;SDS011;62146;53.232;-1.304;2022-08-21T12:51:09;7.93;;;2.20;;
73816;SDS011;62146;53.232;-1.304;2022-08-21T12:56:21;5.40;;;1.75;;
73816;SDS011;62146;53.232;-1.304;2022-08-21T12:58:56;7.13;;;2.20;;
73816;SDS011;62146;53.232;-1.304;2022-08-21T13:01:35;6.82;;;2.13;;
73816;SDS011;62146;53.232;-1.304;2022-08-21T13:04:09;5.93;;;1.87;;
73816;SDS011;62146;53.232;-1.304;2022-08-21T13:06:43;6.13;;;1.85;;
73816;SDS011;62146;53.232;-1.304;2022-08-21T13:09:14;6.90;;;1.83;;
73816;SDS011;62146;53.232;-1.304;2022-08-21T13:11:43;5.10;;;1.60;;
73816;SDS011;62146;53.232;-1.304;2022-08-21T13:16:53;5.43;;;1.50;;
73816;SDS011;62146;53.232;-1.304;2022-08-21T13:19:24;5.65;;;1.50;;
73816;SDS011;62146;53.232;-1.304;2022-08-21T13:21:52;5.68;;;1.92;;
73816;SDS011;62146;53.232;-1.304;2022-08-21T13:24:20;5.45;;;1.60;;
73816;SDS011;62146;53.232;-1.304;2022-08-21T13:27:28;6.53;;;1.85;;
73816;SDS011;62146;53.232;-1.304;2022-08-21T13:30:00;6.97;;;1.60;;
73816;SDS011;62146;53.232;-1.304;2022-08-21T13:32:33;7.18;;;1.70;;
73816;SDS011;62146;53.232;-1.304;2022-08-21T13:35:11;7.15;;;1.70;;
73816;SDS011;62146;53.232;-1.304;2022-08-21T13:37:46;5.10;;;1.50;;
73816;SDS011;62146;53.232;-1.304;2022-08-21T13:40:26;4.55;;;1.55;;
73816;SDS011;62146;53.232;-1.304;2022-08-21T13:42:58;4.67;;;1.57;;
73816;SDS011;62146;53.232;-1.304;2022-08-21T13:45:31;4.28;;;1.67;;
73816;SDS011;62146;53.232;-1.304;2022-08-21T13:48:02;6.18;;;1.65;;
73816;SDS011;62146;53.232;-1.304;2022-08-21T13:50:32;4.50;;;1.75;;
73816;SDS011;62146;53.232;-1.304;2022-08-21T13:53:05;4.20;;;1.38;;
73816;SDS011;62146;53.232;-1.304;2022-08-21T13:55:34;5.77;;;1.50;;
73816;SDS011;62146;53.232;-1.304;2022-08-21T13:58:05;4.78;;;1.60;;
73816;SDS011;62146;53.232;-1.304;2022-08-21T14:00:34;4.55;;;1.35;;
73816;SDS011;62146;53.232;-1.304;2022-08-21T14:03:10;6.20;;;1.30;;
73816;SDS011;62146;53.232;-1.304;2022-08-21T14:05:44;5.80;;;1.40;;
73816;SDS011;62146;53.232;-1.304;2022-08-21T14:08:13;4.63;;;1.30;;
73816;SDS011;62146;53.232;-1.304;2022-08-21T14:10:55;4.75;;;1.50;;
73816;SDS011;62146;53.232;-1.304;2022-08-21T14:18:53;5.72;;;2.13;;
73816;SDS011;62146;53.232;-1.304;2022-08-21T14:21:35;7.00;;;1.40;;
73816;SDS011;62146;53.232;-1.304;2022-08-21T14:26:49;3.85;;;1.40;;
73816;SDS011;62146;53.232;-1.304;2022-08-21T14:29:18;4.15;;;1.30;;
73816;SDS011;62146;53.232;-1.304;2022-08-21T14:31:52;5.32;;;1.50;;
73816;SDS011;62146;53.232;-1.304;2022-08-21T14:34:22;5.83;;;1.50;;
73816;SDS011;62146;53.232;-1.304;2022-08-21T14:36:51;7.00;;;1.60;;
73816;SDS011;62146;53.232;-1.304;2022-08-21T14:39:18;7.20;;;1.65;;
73816;SDS011;62146;53.232;-1.304;2022-08-21T14:41:45;5.85;;;1.65;;
73816;SDS011;62146;53.232;-1.304;2022-08-21T14:44:15;7.13;;;1.80;;
73816;SDS011;62146;53.232;-1.304;2022-08-21T14:46:44;5.63;;;2.07;;
73816;SDS011;62146;53.232;-1.304;2022-08-21T14:49:23;5.70;;;2.00;;
73816;SDS011;62146;53.232;-1.304;2022-08-21T14:51:53;7.50;;;1.58;;
73816;SDS011;62146;53.232;-1.304;2022-08-21T14:54:24;5.28;;;1.80;;
73816;SDS011;62146;53.232;-1.304;2022-08-21T14:56:56;5.60;;;1.65;;
73816;SDS011;62146;53.232;-1.304;2022-08-21T14:59:24;4.47;;;1.30;;
73816;SDS011;62146;53.232;-1.304;2022-08-21T15:01:51;5.13;;;1.67;;
73816;SDS011;62146;53.232;-1.304;2022-08-21T15:04:18;5.70;;;1.70;;
73816;SDS011;62146;53.232;-1.304;2022-08-21T15:06:45;4.65;;;1.80;;
73816;SDS011;62146;53.232;-1.304;2022-08-21T15:09:11;6.07;;;1.63;;
73816;SDS011;62146;53.232;-1.304;2022-08-21T15:11:38;4.40;;;1.60;;
73816;SDS011;62146;53.232;-1.304;2022-08-21T15:14:08;4.10;;;1.70;;
73816;SDS011;62146;53.232;-1.304;2022-08-21T15:16:40;6.57;;;1.73;;
73816;SDS011;62146;53.232;-1.304;2022-08-21T15:19:08;5.32;;;1.70;;
73816;SDS011;62146;53.232;-1.304;2022-08-21T15:21:34;7.25;;;1.80;;
73816;SDS011;62146;53.232;-1.304;2022-08-21T15:24:01;7.00;;;1.60;;
73816;SDS011;62146;53.232;-1.304;2022-08-21T15:26:27;5.40;;;1.58;;
73816;SDS011;62146;53.232;-1.304;2022-08-21T15:28:54;4.18;;;1.35;;
73816;SDS011;62146;53.232;-1.304;2022-08-21T15:31:21;4.72;;;1.50;;
73816;SDS011;62146;53.232;-1.304;2022-08-21T15:33:47;4.65;;;1.77;;
73816;SDS011;62146;53.232;-1.304;2022-08-21T15:36:14;5.53;;;1.50;;
73816;SDS011;62146;53.232;-1.304;2022-08-21T15:38:40;4.70;;;1.65;;
73816;SDS011;62146;53.232;-1.304;2022-08-21T15:41:07;6.60;;;1.65;;
73816;SDS011;62146;53.232;-1.304;2022-08-21T15:43:45;5.25;;;1.80;;
73816;SDS011;62146;53.232;-1.304;2022-08-21T15:46:14;5.30;;;1.90;;
73816;SDS011;62146;53.232;-1.304;2022-08-21T15:48:42;8.07;;;1.90;;
73816;SDS011;62146;53.232;-1.304;2022-08-21T15:51:10;6.00;;;1.75;;
73816;SDS011;62146;53.232;-1.304;2022-08-21T15:53:37;7.68;;;2.28;;
73816;SDS011;62146;53.232;-1.304;2022-08-21T15:56:06;5.47;;;1.80;;
73816;SDS011;62146;53.232;-1.304;2022-08-21T15:58:53;6.13;;;2.00;;
73816;SDS011;62146;53.232;-1.304;2022-08-21T16:01:24;6.73;;;1.83;;
73816;SDS011;62146;53.232;-1.304;2022-08-21T16:03:52;6.63;;;1.70;;
73816;SDS011;62146;53.232;-1.304;2022-08-21T16:06:20;4.63;;;1.60;;
73816;SDS011;62146;53.232;-1.304;2022-08-21T16:09:07;5.43;;;1.88;;
73816;SDS011;62146;53.232;-1.304;2022-08-21T16:11:33;5.50;;;1.70;;
73816;SDS011;62146;53.232;-1.304;2022-08-21T16:14:00;6.43;;;1.80;;
73816;SDS011;62146;53.232;-1.304;2022-08-21T16:16:26;5.93;;;1.63;;